Time;durP1;ratioP1;P1;durP2;ratioP2;P2;SDS_P1;SDS_P2;PMS_P1;PMS_P2;Temp;Humidity;BMP_temperature;BMP_pressure;BME280_temperature;BME280_humidity;BME280_pressure;Samples;Min_cycle;Max_cycle;Signal;HPM_P1;HPM_P2
2021/04/13 00:00:27;;;;;;;;;;;-1.20;96.80;;;;;;5040051;28;19940;-67
2021/04/13 00:02:54;;;;;;;;;;;-1.20;96.90;;;;;;5025154;28;19913;-67
2021/04/13 00:05:22;;;;;;;;;;;-1.20;96.90;;;;;;5036499;28;20381;-67
2021/04/13 00:07:48;;;;;;;;;;;-1.20;96.90;;;;;;5031711;28;19961;-68
2021/04/13 00:10:16;;;;;;;;;;;-1.20;97.00;;;;;;5031763;28;21703;-65
2021/04/13 00:12:42;;;;;;;;;;;-1.20;96.90;;;;;;5033097;28;20007;-70
2021/04/13 00:15:16;;;;;;;;;;;-1.30;97.10;;;;;;5030713;28;20303;-68
2021/04/13 00:17:43;;;;;;;;;;;-1.40;97.10;;;;;;5032133;28;19921;-65
2021/04/13 00:20:20;;;;;;;;;;;-1.50;97.10;;;;;;5031764;28;19921;-69
2021/04/13 00:22:49;;;;;;;;;;;-1.50;97.00;;;;;;5030670;28;19948;-67
2021/04/13 00:25:32;;;;;;;;;;;-1.50;97.00;;;;;;5032427;28;19931;-67
2021/04/13 00:27:58;;;;;;;;;;;-1.50;96.90;;;;;;5032215;28;19925;-67
2021/04/13 00:30:27;;;;;;;;;;;-1.50;96.80;;;;;;5031597;28;19913;-66
2021/04/13 00:33:00;;;;;;;;;;;-1.50;96.70;;;;;;5032441;28;19917;-67
2021/04/13 00:35:43;;;;;;;;;;;-1.40;97.00;;;;;;5030372;28;20535;-69
2021/04/13 00:38:35;;;;;;;;;;;-1.40;96.90;;;;;;5030708;28;19929;-68
2021/04/13 00:41:21;;;;;;;;;;;-1.40;96.90;;;;;;5028460;28;19925;-68
2021/04/13 00:44:03;;;;;;;;;;;-1.50;97.00;;;;;;5031505;28;19920;-67
2021/04/13 00:46:52;;;;;;;;;;;-1.50;96.90;;;;;;5030009;28;19920;-67
2021/04/13 00:49:20;;;;;;;;;;;-1.50;96.90;;;;;;5028243;28;19932;-66
2021/04/13 00:51:54;;;;;;;;;;;-1.40;96.70;;;;;;5032018;28;20333;-65
2021/04/13 00:54:30;;;;;;;;;;;-1.50;96.90;;;;;;5047148;28;20230;-66
2021/04/13 00:56:59;;;;;;;;;;;-1.50;96.90;;;;;;5033154;28;19922;-65
2021/04/13 00:59:25;;;;;;;;;;;-1.50;96.90;;;;;;5032257;28;20433;-66
2021/04/13 01:02:03;;;;;;;;;;;-1.50;96.90;;;;;;5030509;28;19914;-67
2021/04/13 01:04:32;;;;;;;;;;;-1.50;97.10;;;;;;5030262;28;20012;-66
2021/04/13 01:07:04;;;;;;;;;;;-1.60;97.10;;;;;;5031261;28;19940;-67
2021/04/13 01:09:29;;;;;;;;;;;-1.70;96.90;;;;;;5031470;28;19922;-66
2021/04/13 01:11:56;;;;;;;;;;;-1.80;96.80;;;;;;5030957;28;20214;-67
2021/04/13 01:14:24;;;;;;;;;;;-1.80;96.70;;;;;;5031968;28;20206;-67
2021/04/13 01:16:55;;;;;;;;;;;-1.70;96.70;;;;;;5033127;28;19952;-68
2021/04/13 01:19:27;;;;;;;;;;;-1.70;96.80;;;;;;5031207;28;20007;-67
2021/04/13 01:21:58;;;;;;;;;;;-1.60;96.80;;;;;;5031276;28;19913;-67
2021/04/13 01:24:30;;;;;;;;;;;-1.70;96.80;;;;;;5031209;28;19921;-67
2021/04/13 01:26:57;;;;;;;;;;;-1.60;96.80;;;;;;5029668;28;19921;-68
2021/04/13 01:29:28;;;;;;;;;;;-1.60;96.80;;;;;;5031378;28;20007;-67
2021/04/13 01:31:56;;;;;;;;;;;-1.70;97.10;;;;;;5031713;28;19932;-68
2021/04/13 01:34:32;;;;;;;;;;;-1.80;96.90;;;;;;5031789;28;19917;-66
2021/04/13 01:40:33;;;;;;;;;;;-1.80;96.60;;;;;;5019670;28;20229;-67
2021/04/13 01:42:39;;;;;;;;;;;-1.80;96.80;;;;;;5023167;28;20318;-67
2021/04/13 01:45:06;;;;;;;;;;;-1.90;96.90;;;;;;5030396;28;20313;-67
2021/04/13 01:47:32;;;;;;;;;;;-1.90;96.70;;;;;;5031745;28;19998;-67
2021/04/13 01:50:01;;;;;;;;;;;-1.80;96.80;;;;;;5030671;28;20322;-67
2021/04/13 01:52:29;;;;;;;;;;;-1.90;96.90;;;;;;5029879;28;19913;-68
2021/04/13 01:54:58;;;;;;;;;;;-2.00;96.90;;;;;;5030391;28;19971;-68
2021/04/13 01:57:30;;;;;;;;;;;-1.90;96.50;;;;;;5032438;28;19924;-66
2021/04/13 02:00:00;;;;;;;;;;;-1.80;96.70;;;;;;5031891;28;19921;-68
2021/04/13 02:02:28;;;;;;;;;;;-1.80;96.70;;;;;;5031191;28;20239;-68
2021/04/13 02:04:56;;;;;;;;;;;-1.90;96.70;;;;;;5030739;28;20265;-68
2021/04/13 02:10:21;;;;;;;;;;;-1.80;96.60;;;;;;5030426;28;19913;-67
2021/04/13 02:12:48;;;;;;;;;;;-1.70;96.70;;;;;;5029971;28;20549;-68
2021/04/13 02:15:34;;;;;;;;;;;-1.70;96.80;;;;;;5030953;28;19913;-67
2021/04/13 02:18:02;;;;;;;;;;;-1.80;96.70;;;;;;5028860;28;20481;-67
2021/04/13 02:20:32;;;;;;;;;;;-1.80;96.70;;;;;;5031183;28;19921;-67
2021/04/13 02:22:58;;;;;;;;;;;-1.80;96.70;;;;;;5029543;28;20221;-68
2021/04/13 02:25:26;;;;;;;;;;;-1.80;96.70;;;;;;5027438;28;19983;-67
2021/04/13 02:27:53;;;;;;;;;;;-1.80;96.60;;;;;;5030080;28;19928;-68
2021/04/13 02:30:28;;;;;;;;;;;-1.90;96.90;;;;;;5030478;28;19965;-67
2021/04/13 02:32:53;;;;;;;;;;;-1.90;96.70;;;;;;5030155;28;19917;-66
2021/04/13 02:35:20;;;;;;;;;;;-1.90;96.60;;;;;;5031399;28;19967;-65
2021/04/13 02:37:52;;;;;;;;;;;-1.90;96.70;;;;;;5028857;28;19956;-67
2021/04/13 02:40:22;;;;;;;;;;;-1.90;96.60;;;;;;5029745;28;20344;-68
2021/04/13 02:42:49;;;;;;;;;;;-1.90;96.80;;;;;;5030380;28;19932;-67
2021/04/13 02:45:33;;;;;;;;;;;-2.00;96.90;;;;;;5029792;28;20214;-68
2021/04/13 02:48:17;;;;;;;;;;;-2.00;96.70;;;;;;5030011;28;19917;-68
2021/04/13 02:50:45;;;;;;;;;;;-2.00;96.60;;;;;;5028613;28;20230;-66
2021/04/13 02:53:12;;;;;;;;;;;-1.90;96.60;;;;;;5029497;28;20444;-68
2021/04/13 02:55:39;;;;;;;;;;;-1.90;96.70;;;;;;5029259;28;19917;-68
2021/04/13 02:58:10;;;;;;;;;;;-1.90;96.80;;;;;;5030085;28;19921;-67
2021/04/13 03:00:44;;;;;;;;;;;-1.90;96.90;;;;;;5026652;28;19928;-67
2021/04/13 03:03:12;;;;;;;;;;;-2.00;96.90;;;;;;5045666;28;19932;-66
2021/04/13 03:05:39;;;;;;;;;;;-2.10;97.00;;;;;;5030219;28;19925;-68
2021/04/13 03:08:08;;;;;;;;;;;-2.20;96.90;;;;;;5029260;28;19921;-68
2021/04/13 03:10:37;;;;;;;;;;;-2.30;96.80;;;;;;5030003;28;19913;-67
2021/04/13 03:13:11;;;;;;;;;;;-2.20;96.50;;;;;;5030178;28;20000;-67
2021/04/13 03:15:38;;;;;;;;;;;-2.10;96.70;;;;;;5030244;28;20018;-67
2021/04/13 03:18:24;;;;;;;;;;;-2.10;96.80;;;;;;5030092;28;19920;-67
2021/04/13 03:20:51;;;;;;;;;;;-2.20;96.90;;;;;;5030783;28;19925;-68
2021/04/13 03:23:17;;;;;;;;;;;-2.30;96.90;;;;;;5033394;28;19913;-66
2021/04/13 03:25:59;;;;;;;;;;;-2.30;96.70;;;;;;5033354;28;19917;-66
2021/04/13 03:28:27;;;;;;;;;;;-2.20;96.70;;;;;;5033617;28;19914;-67
2021/04/13 03:30:53;;;;;;;;;;;-2.20;96.80;;;;;;5033632;28;19945;-66
2021/04/13 03:33:26;;;;;;;;;;;-2.20;96.70;;;;;;5034064;28;20502;-70
2021/04/13 03:35:56;;;;;;;;;;;-2.20;96.80;;;;;;5034352;28;20047;-66
2021/04/13 03:38:23;;;;;;;;;;;-2.30;96.80;;;;;;5031701;28;19921;-68
2021/04/13 03:40:50;;;;;;;;;;;-2.30;96.70;;;;;;5030138;28;19979;-65
2021/04/13 03:43:20;;;;;;;;;;;-2.30;96.70;;;;;;5034307;28;19972;-67
2021/04/13 03:45:49;;;;;;;;;;;-2.30;96.70;;;;;;5033524;28;20025;-67
2021/04/13 03:48:19;;;;;;;;;;;-2.30;96.70;;;;;;5033670;28;19951;-66
2021/04/13 03:50:46;;;;;;;;;;;-2.30;96.90;;;;;;5033825;28;19913;-65
2021/04/13 03:53:16;;;;;;;;;;;-2.30;96.70;;;;;;5031691;28;19990;-66
2021/04/13 03:56:02;;;;;;;;;;;-2.30;96.70;;;;;;5047024;28;19921;-68
2021/04/13 03:58:32;;;;;;;;;;;-2.40;96.80;;;;;;5032579;28;20257;-68
2021/04/13 04:00:58;;;;;;;;;;;-2.40;96.70;;;;;;5031199;28;19935;-67
2021/04/13 04:03:24;;;;;;;;;;;-2.50;96.90;;;;;;5029929;28;19917;-68
2021/04/13 04:05:52;;;;;;;;;;;-2.60;96.80;;;;;;5031205;28;20226;-68
2021/04/13 04:08:29;;;;;;;;;;;-2.80;97.20;;;;;;5030311;28;19921;-68
2021/04/13 04:10:57;;;;;;;;;;;-3.00;97.10;;;;;;5031303;28;19945;-67
2021/04/13 04:13:44;;;;;;;;;;;-3.10;97.20;;;;;;5032221;28;19932;-68
2021/04/13 04:16:18;;;;;;;;;;;-3.30;97.00;;;;;;5031952;28;19932;-68
2021/04/13 04:18:46;;;;;;;;;;;-3.40;97.00;;;;;;5031207;28;19971;-67
2021/04/13 04:21:31;;;;;;;;;;;-3.50;96.80;;;;;;5031400;28;20311;-68
2021/04/13 04:24:09;;;;;;;;;;;-3.60;97.00;;;;;;5030015;28;19914;-68
2021/04/13 04:26:51;;;;;;;;;;;-3.70;97.00;;;;;;5024591;28;19921;-68
2021/04/13 04:29:19;;;;;;;;;;;-3.60;96.50;;;;;;5030257;28;19927;-67
2021/04/13 04:31:50;;;;;;;;;;;-3.50;96.40;;;;;;5028273;28;19921;-68
2021/04/13 04:34:15;;;;;;;;;;;-3.40;96.60;;;;;;5029535;28;19925;-67
2021/04/13 04:36:46;;;;;;;;;;;-3.40;96.80;;;;;;5031694;28;19921;-66
2021/04/13 04:39:31;;;;;;;;;;;-3.40;96.80;;;;;;5030512;28;19935;-68
2021/04/13 04:41:59;;;;;;;;;;;-3.40;96.70;;;;;;5031236;28;19913;-68
2021/04/13 04:44:26;;;;;;;;;;;-3.30;96.70;;;;;;5030926;28;19996;-67
2021/04/13 04:46:58;;;;;;;;;;;-3.30;96.60;;;;;;5029995;28;20337;-68
2021/04/13 04:49:24;;;;;;;;;;;-3.20;96.50;;;;;;5027139;28;19913;-67
2021/04/13 04:51:52;;;;;;;;;;;-3.10;96.50;;;;;;5028516;28;19913;-65
2021/04/13 04:54:17;;;;;;;;;;;-3.10;96.50;;;;;;4963725;28;1901545;-65
2021/04/13 04:56:43;;;;;;;;;;;-3.10;96.70;;;;;;5032095;28;19948;-66
2021/04/13 04:59:09;;;;;;;;;;;-3.20;96.80;;;;;;5032065;28;20328;-68
2021/04/13 05:01:38;;;;;;;;;;;-3.10;96.20;;;;;;5030179;28;19917;-68
2021/04/13 05:04:03;;;;;;;;;;;-3.00;96.40;;;;;;5031260;28;19920;-68
2021/04/13 05:06:29;;;;;;;;;;;-3.00;96.50;;;;;;5029344;28;19921;-68
2021/04/13 05:08:55;;;;;;;;;;;-2.80;96.50;;;;;;5029480;28;19913;-67
2021/04/13 05:11:21;;;;;;;;;;;-2.90;96.60;;;;;;5031399;28;19975;-67
2021/04/13 05:13:47;;;;;;;;;;;-2.70;96.20;;;;;;5029825;28;20564;-68
2021/04/13 05:16:12;;;;;;;;;;;-2.70;96.60;;;;;;5031778;28;19922;-67
2021/04/13 05:18:47;;;;;;;;;;;-2.60;96.60;;;;;;5032017;28;20217;-68
2021/04/13 05:21:12;;;;;;;;;;;-2.50;96.70;;;;;;5032232;28;19936;-68
2021/04/13 05:23:38;;;;;;;;;;;-2.50;96.80;;;;;;5031173;28;20399;-67
2021/04/13 05:26:04;;;;;;;;;;;-2.50;96.40;;;;;;5032823;28;19917;-67
2021/04/13 05:28:30;;;;;;;;;;;-2.20;96.20;;;;;;5031017;28;20314;-65
2021/04/13 05:30:55;;;;;;;;;;;-2.10;96.70;;;;;;5031501;28;20000;-67
2021/04/13 05:33:22;;;;;;;;;;;-2.00;96.50;;;;;;5032062;28;19917;-67
2021/04/13 05:35:48;;;;;;;;;;;-2.00;96.70;;;;;;5033443;28;20309;-67
2021/04/13 05:38:16;;;;;;;;;;;-1.90;96.90;;;;;;5030286;28;19963;-65
2021/04/13 05:40:42;;;;;;;;;;;-1.90;96.50;;;;;;5032103;28;19932;-67
2021/04/13 05:43:09;;;;;;;;;;;-1.80;96.40;;;;;;5031533;28;20047;-67
2021/04/13 05:45:36;;;;;;;;;;;-1.70;96.50;;;;;;5031067;28;19920;-67
2021/04/13 05:48:05;;;;;;;;;;;-1.60;96.40;;;;;;5031122;28;19913;-67
2021/04/13 05:50:32;;;;;;;;;;;-1.60;96.60;;;;;;5030500;28;19921;-67
2021/04/13 05:52:57;;;;;;;;;;;-1.50;96.40;;;;;;5029386;28;19949;-67
2021/04/13 05:55:23;;;;;;;;;;;-1.40;96.30;;;;;;5036995;28;20285;-65
2021/04/13 05:57:49;;;;;;;;;;;-1.40;96.40;;;;;;5036724;28;20000;-67
2021/04/13 06:00:18;;;;;;;;;;;-1.40;97.10;;;;;;5036891;28;20298;-67
2021/04/13 06:02:44;;;;;;;;;;;-1.50;96.90;;;;;;5036775;28;20013;-65
2021/04/13 06:05:11;;;;;;;;;;;-1.50;97.00;;;;;;5036605;28;20063;-66
2021/04/13 06:07:37;;;;;;;;;;;-1.40;96.40;;;;;;5034461;28;19920;-65
2021/04/13 06:10:04;;;;;;;;;;;-1.10;96.00;;;;;;5036604;28;19909;-66
2021/04/13 06:12:29;;;;;;;;;;;-0.70;96.20;;;;;;5036686;28;19915;-66
2021/04/13 06:14:55;;;;;;;;;;;-0.40;96.40;;;;;;5035908;28;19917;-64
2021/04/13 06:17:20;;;;;;;;;;;-0.50;97.10;;;;;;5036301;28;20004;-67
2021/04/13 06:19:46;;;;;;;;;;;-0.60;96.80;;;;;;5036300;28;19923;-65
2021/04/13 06:22:14;;;;;;;;;;;-0.20;96.60;;;;;;5035072;28;19909;-66
2021/04/13 06:24:40;;;;;;;;;;;0.10;97.30;;;;;;5036557;28;19913;-66
2021/04/13 06:27:06;;;;;;;;;;;0.40;97.70;;;;;;5035719;28;20253;-66
2021/04/13 06:29:34;;;;;;;;;;;0.40;97.70;;;;;;5035372;28;20000;-65
2021/04/13 06:32:00;;;;;;;;;;;0.40;98.00;;;;;;5036100;28;19917;-66
2021/04/13 06:34:26;;;;;;;;;;;0.40;97.80;;;;;;5035932;28;19924;-65
2021/04/13 06:36:52;;;;;;;;;;;0.40;98.00;;;;;;5035061;28;19913;-66
2021/04/13 06:39:17;;;;;;;;;;;0.30;98.00;;;;;;5035675;28;20004;-64
2021/04/13 06:42:01;;;;;;;;;;;0.50;97.90;;;;;;5035818;28;19913;-65
2021/04/13 06:44:32;;;;;;;;;;;0.70;98.00;;;;;;5036203;28;20000;-64
2021/04/13 06:46:58;;;;;;;;;;;0.60;98.00;;;;;;5035351;28;19945;-64
2021/04/13 06:49:43;;;;;;;;;;;0.70;98.00;;;;;;5036200;28;19963;-67
2021/04/13 06:52:09;;;;;;;;;;;0.80;98.00;;;;;;5034482;28;19917;-67
2021/04/13 06:54:42;;;;;;;;;;;0.90;98.00;;;;;;5035812;28;19918;-67
2021/04/13 06:57:30;;;;;;;;;;;1.00;98.00;;;;;;5035071;28;19913;-65
2021/04/13 07:00:14;;;;;;;;;;;1.30;98.00;;;;;;5035776;28;19913;-66
2021/04/13 07:02:39;;;;;;;;;;;1.50;98.00;;;;;;5035174;28;19999;-68
2021/04/13 07:05:11;;;;;;;;;;;1.50;98.00;;;;;;5035824;28;20389;-66
2021/04/13 07:07:52;;;;;;;;;;;1.60;98.00;;;;;;5034027;28;19918;-67
2021/04/13 07:10:26;;;;;;;;;;;1.80;98.00;;;;;;5035993;28;20012;-67
2021/04/13 07:13:00;;;;;;;;;;;2.20;98.00;;;;;;5030682;28;19945;-67
2021/04/13 07:15:32;;;;;;;;;;;2.30;98.00;;;;;;5028759;28;19987;-67
2021/04/13 07:18:00;;;;;;;;;;;2.40;98.00;;;;;;5035572;28;19921;-65
2021/04/13 07:20:34;;;;;;;;;;;2.40;98.00;;;;;;5035696;28;19920;-66
2021/04/13 07:23:12;;;;;;;;;;;2.30;98.00;;;;;;5034495;28;19909;-65
2021/04/13 07:25:46;;;;;;;;;;;2.20;97.80;;;;;;5035575;28;19967;-66
2021/04/13 07:28:15;;;;;;;;;;;2.30;97.80;;;;;;5035183;28;20302;-67
2021/04/13 07:31:04;;;;;;;;;;;2.60;97.90;;;;;;5035565;28;20302;-67
2021/04/13 07:33:31;;;;;;;;;;;2.90;98.00;;;;;;5028778;28;20015;-66
2021/04/13 07:36:02;;;;;;;;;;;3.30;97.00;;;;;;5033964;28;19917;-67
2021/04/13 07:38:36;;;;;;;;;;;3.40;95.80;;;;;;5033702;28;19917;-65
2021/04/13 07:41:09;;;;;;;;;;;3.50;94.80;;;;;;5034614;28;20287;-67
2021/04/13 07:43:46;;;;;;;;;;;3.70;94.30;;;;;;5035551;28;19909;-67
2021/04/13 07:46:30;;;;;;;;;;;3.80;93.30;;;;;;5032509;28;21315;-67
2021/04/13 07:49:05;;;;;;;;;;;3.90;93.40;;;;;;5034793;28;19944;-67
2021/04/13 07:51:31;;;;;;;;;;;4.40;92.50;;;;;;5035476;28;19913;-68
2021/04/13 07:53:56;;;;;;;;;;;4.50;90.80;;;;;;5033619;28;20397;-67
2021/04/13 07:56:22;;;;;;;;;;;4.80;90.10;;;;;;5035238;28;19909;-67
2021/04/13 07:58:48;;;;;;;;;;;5.10;88.20;;;;;;5034822;28;19949;-65
2021/04/13 08:01:14;;;;;;;;;;;5.00;87.20;;;;;;5034006;28;20325;-67
2021/04/13 08:03:40;;;;;;;;;;;5.30;87.60;;;;;;5035365;28;19967;-67
2021/04/13 08:06:25;;;;;;;;;;;6.20;84.00;;;;;;5035059;28;19963;-68
2021/04/13 08:09:05;;;;;;;;;;;7.60;80.90;;;;;;5037092;28;19936;-68
2021/04/13 08:11:30;;;;;;;;;;;8.60;78.60;;;;;;5037278;28;19913;-67
2021/04/13 08:13:56;;;;;;;;;;;9.40;72.20;;;;;;5039144;28;19913;-68
2021/04/13 08:16:28;;;;;;;;;;;9.90;72.00;;;;;;5038715;28;19919;-66
2021/04/13 08:19:11;;;;;;;;;;;8.90;70.50;;;;;;5033637;28;20007;-66
2021/04/13 08:21:37;;;;;;;;;;;8.50;73.20;;;;;;5038568;28;19924;-68
2021/04/13 08:24:03;;;;;;;;;;;8.10;72.60;;;;;;5037052;28;19917;-67
2021/04/13 08:26:44;;;;;;;;;;;7.60;75.00;;;;;;5036095;28;19913;-69
2021/04/13 08:29:10;;;;;;;;;;;7.90;76.00;;;;;;5038352;28;19920;-68
2021/04/13 08:34:33;;;;;;;;;;;7.70;72.10;;;;;;5038381;28;20054;-68
2021/04/13 08:37:11;;;;;;;;;;;7.70;74.20;;;;;;5036890;28;19939;-68
2021/04/13 08:39:39;;;;;;;;;;;8.00;73.30;;;;;;5038368;28;19913;-67
2021/04/13 08:42:08;;;;;;;;;;;8.30;72.30;;;;;;5036811;28;20225;-68
2021/04/13 08:44:44;;;;;;;;;;;9.00;72.90;;;;;;5038087;28;20372;-68
2021/04/13 08:47:11;;;;;;;;;;;9.30;70.60;;;;;;5037603;28;19913;-68
2021/04/13 08:49:42;;;;;;;;;;;8.30;71.70;;;;;;5038274;28;19960;-66
2021/04/13 08:52:22;;;;;;;;;;;8.20;72.20;;;;;;5036608;28;19928;-68
2021/04/13 08:54:49;;;;;;;;;;;7.50;72.50;;;;;;5034516;28;19951;-67
2021/04/13 08:57:31;;;;;;;;;;;7.00;73.10;;;;;;5037222;28;19935;-68
2021/04/13 08:59:57;;;;;;;;;;;6.80;74.80;;;;;;5037698;28;20306;-68
2021/04/13 09:02:34;;;;;;;;;;;6.30;75.50;;;;;;5037892;28;19963;-68
2021/04/13 09:05:02;;;;;;;;;;;6.60;76.10;;;;;;5037401;28;19963;-67
2021/04/13 09:07:29;;;;;;;;;;;7.10;74.90;;;;;;5036805;28;19913;-68
2021/04/13 09:10:13;;;;;;;;;;;7.20;73.20;;;;;;5037187;28;19913;-67
2021/04/13 09:12:46;;;;;;;;;;;6.70;75.00;;;;;;5027086;28;19913;-67
2021/04/13 09:15:26;;;;;;;;;;;6.10;75.90;;;;;;5019807;28;19914;-66
2021/04/13 09:18:11;;;;;;;;;;;5.90;77.30;;;;;;5037303;28;19913;-68
2021/04/13 09:20:39;;;;;;;;;;;5.50;77.90;;;;;;5036044;28;19913;-66
2021/04/13 09:23:09;;;;;;;;;;;5.40;80.90;;;;;;5028741;28;19929;-67
2021/04/13 09:25:50;;;;;;;;;;;5.50;79.90;;;;;;5017822;28;20004;-67
2021/04/13 09:28:20;;;;;;;;;;;5.60;79.80;;;;;;5029423;28;19928;-68
2021/04/13 09:30:47;;;;;;;;;;;5.60;78.10;;;;;;5037483;28;19909;-67
2021/04/13 09:33:28;;;;;;;;;;;5.60;79.20;;;;;;5036513;28;19913;-69
2021/04/13 09:36:00;;;;;;;;;;;5.70;78.60;;;;;;5037429;28;19920;-68
2021/04/13 09:38:27;;;;;;;;;;;5.40;77.70;;;;;;5035963;28;19967;-68
2021/04/13 09:40:59;;;;;;;;;;;4.90;82.10;;;;;;5036861;28;19992;-68
2021/04/13 09:43:43;;;;;;;;;;;4.10;87.60;;;;;;5036208;28;19964;-68
2021/04/13 09:46:35;;;;;;;;;;;3.50;91.10;;;;;;5016787;28;19917;-68
2021/04/13 09:49:24;;;;;;;;;;;3.20;92.90;;;;;;5004341;28;19947;-68
2021/04/13 09:51:53;;;;;;;;;;;2.90;93.80;;;;;;5036465;28;20237;-68
2021/04/13 09:54:33;;;;;;;;;;;2.90;94.40;;;;;;5036025;28;19928;-67
2021/04/13 09:57:15;;;;;;;;;;;2.60;94.80;;;;;;5035624;28;19944;-67
2021/04/13 10:00:03;;;;;;;;;;;2.60;95.40;;;;;;5036989;28;19909;-68
2021/04/13 10:02:45;;;;;;;;;;;2.60;96.10;;;;;;5033892;28;19913;-69
2021/04/13 10:05:13;;;;;;;;;;;2.70;96.30;;;;;;5036795;28;19909;-68
2021/04/13 10:07:40;;;;;;;;;;;3.10;96.00;;;;;;5035300;28;20306;-69
2021/04/13 10:10:12;;;;;;;;;;;3.90;94.80;;;;;;5036819;28;19909;-68
2021/04/13 10:12:56;;;;;;;;;;;5.60;91.90;;;;;;5035706;28;19921;-68
2021/04/13 10:15:40;;;;;;;;;;;8.20;84.50;;;;;;5036285;28;19963;-66
2021/04/13 10:18:24;;;;;;;;;;;9.60;76.40;;;;;;5036447;28;19920;-68
2021/04/13 10:20:52;;;;;;;;;;;9.80;75.40;;;;;;5036525;28;20466;-67
2021/04/13 10:23:26;;;;;;;;;;;10.10;73.30;;;;;;5033884;28;20364;-68
2021/04/13 10:26:11;;;;;;;;;;;9.50;72.10;;;;;;5025548;28;19909;-69
2021/04/13 10:28:56;;;;;;;;;;;8.50;74.20;;;;;;5035765;28;19921;-66
2021/04/13 10:31:27;;;;;;;;;;;7.40;74.90;;;;;;5035292;28;19913;-67
2021/04/13 10:34:11;;;;;;;;;;;6.20;78.50;;;;;;5035360;28;20390;-68
2021/04/13 10:36:55;;;;;;;;;;;5.60;81.30;;;;;;5035563;28;19924;-67
2021/04/13 10:39:36;;;;;;;;;;;5.00;82.00;;;;;;5036020;28;19952;-68
2021/04/13 10:42:20;;;;;;;;;;;4.70;83.50;;;;;;5034784;28;20008;-68
2021/04/13 10:44:58;;;;;;;;;;;4.90;83.50;;;;;;5033017;28;19939;-67
2021/04/13 10:47:42;;;;;;;;;;;4.70;82.40;;;;;;5034412;28;19964;-64
2021/04/13 10:50:16;;;;;;;;;;;4.80;83.90;;;;;;5032376;28;19913;-65
2021/04/13 10:52:41;;;;;;;;;;;5.40;82.70;;;;;;5022686;28;19917;-65
2021/04/13 10:55:16;;;;;;;;;;;5.90;80.20;;;;;;5033533;28;20019;-65
2021/04/13 10:58:00;;;;;;;;;;;6.20;76.20;;;;;;5025674;28;20187;-65
2021/04/13 11:00:39;;;;;;;;;;;6.30;76.30;;;;;;5023220;28;20364;-64
2021/04/13 11:03:28;;;;;;;;;;;6.40;77.30;;;;;;5032762;28;19913;-65
2021/04/13 11:05:57;;;;;;;;;;;6.80;76.10;;;;;;5023342;28;19913;-64
2021/04/13 11:08:35;;;;;;;;;;;6.90;73.90;;;;;;5014806;28;19910;-65
2021/04/13 11:11:30;;;;;;;;;;;7.60;74.80;;;;;;5024430;28;19909;-65
2021/04/13 11:14:10;;;;;;;;;;;8.50;73.80;;;;;;5007780;28;19921;-65
2021/04/13 11:16:43;;;;;;;;;;;9.70;69.90;;;;;;5032271;28;19913;-65
2021/04/13 11:19:26;;;;;;;;;;;11.20;64.70;;;;;;5025040;28;19909;-66
2021/04/13 11:22:12;;;;;;;;;;;10.40;63.40;;;;;;5031124;28;19913;-65
2021/04/13 11:24:40;;;;;;;;;;;9.40;64.30;;;;;;5034586;28;19910;-65
2021/04/13 11:27:24;;;;;;;;;;;8.60;65.90;;;;;;5031289;28;20004;-65
2021/04/13 11:30:17;;;;;;;;;;;9.20;64.20;;;;;;5033312;28;19948;-65
2021/04/13 11:33:02;;;;;;;;;;;9.70;64.20;;;;;;5023617;28;19920;-65
2021/04/13 11:35:45;;;;;;;;;;;10.30;62.50;;;;;;5025121;28;19913;-65
2021/04/13 11:38:29;;;;;;;;;;;11.20;63.10;;;;;;5031566;28;20306;-65
2021/04/13 11:41:02;;;;;;;;;;;10.40;61.80;;;;;;5032159;28;19916;-66
2021/04/13 11:43:30;;;;;;;;;;;9.30;63.60;;;;;;5036870;28;19992;-66
2021/04/13 11:46:05;;;;;;;;;;;8.60;63.80;;;;;;5034494;28;19917;-65
2021/04/13 11:48:45;;;;;;;;;;;7.40;73.00;;;;;;5035718;28;19913;-65
2021/04/13 11:51:20;;;;;;;;;;;6.80;74.70;;;;;;5023633;28;19913;-65
2021/04/13 11:53:49;;;;;;;;;;;5.90;76.90;;;;;;5036377;28;19929;-65
2021/04/13 11:56:24;;;;;;;;;;;5.10;80.50;;;;;;5038832;28;20217;-65
2021/04/13 11:59:17;;;;;;;;;;;4.70;82.50;;;;;;5037453;28;19974;-66
2021/04/13 12:01:43;;;;;;;;;;;4.60;83.00;;;;;;5033558;28;20365;-66
2021/04/13 12:04:13;;;;;;;;;;;4.50;85.40;;;;;;5037394;28;19913;-66
2021/04/13 12:06:58;;;;;;;;;;;4.80;84.00;;;;;;5038111;28;19909;-66
2021/04/13 12:09:43;;;;;;;;;;;4.90;82.00;;;;;;5038768;28;19917;-67
2021/04/13 12:12:27;;;;;;;;;;;5.00;81.10;;;;;;5037981;28;19910;-63
2021/04/13 12:14:53;;;;;;;;;;;5.00;80.50;;;;;;5038664;28;19917;-67
2021/04/13 12:17:30;;;;;;;;;;;5.30;81.30;;;;;;5038613;28;19988;-66
2021/04/13 12:20:14;;;;;;;;;;;5.50;78.90;;;;;;5038378;28;19963;-67
2021/04/13 12:22:40;;;;;;;;;;;5.80;76.60;;;;;;5036914;28;19913;-66
2021/04/13 12:25:25;;;;;;;;;;;6.00;74.10;;;;;;5036912;28;19920;-68
2021/04/13 12:28:00;;;;;;;;;;;6.00;72.30;;;;;;5037634;28;19909;-64
2021/04/13 12:30:26;;;;;;;;;;;6.30;72.50;;;;;;5037337;28;19975;-68
2021/04/13 12:32:52;;;;;;;;;;;5.90;70.90;;;;;;5037786;28;19913;-67
2021/04/13 12:35:36;;;;;;;;;;;6.30;74.40;;;;;;5036529;28;19921;-66
2021/04/13 12:38:23;;;;;;;;;;;6.80;70.70;;;;;;5032530;28;19917;-67
2021/04/13 12:41:04;;;;;;;;;;;7.20;69.30;;;;;;5037341;28;19919;-67
2021/04/13 12:43:32;;;;;;;;;;;7.50;68.60;;;;;;5037837;28;19920;-67
2021/04/13 12:45:59;;;;;;;;;;;7.30;68.70;;;;;;5028870;28;19917;-67
2021/04/13 12:48:40;;;;;;;;;;;7.50;66.60;;;;;;5037082;28;20003;-66
2021/04/13 12:51:08;;;;;;;;;;;7.40;68.40;;;;;;5037772;28;19913;-67
2021/04/13 12:53:33;;;;;;;;;;;7.00;68.30;;;;;;5027103;28;20473;-66
2021/04/13 12:56:00;;;;;;;;;;;7.00;68.40;;;;;;5037816;28;20004;-67
2021/04/13 12:58:28;;;;;;;;;;;6.90;68.60;;;;;;5037669;28;19960;-66
2021/04/13 13:00:54;;;;;;;;;;;6.50;70.00;;;;;;5034333;28;20280;-68
2021/04/13 13:03:29;;;;;;;;;;;6.60;68.40;;;;;;5017110;28;19909;-67
2021/04/13 13:05:55;;;;;;;;;;;7.30;69.40;;;;;;5034820;28;20254;-66
2021/04/13 13:08:22;;;;;;;;;;;8.00;67.20;;;;;;5036744;28;19913;-67
2021/04/13 13:10:55;;;;;;;;;;;8.50;64.20;;;;;;5037206;28;20277;-67
2021/04/13 13:13:27;;;;;;;;;;;9.10;63.40;;;;;;5036533;28;19913;-66
2021/04/13 13:15:53;;;;;;;;;;;9.80;62.60;;;;;;5037273;28;19920;-68
2021/04/13 13:18:41;;;;;;;;;;;10.30;60.80;;;;;;5028745;28;20027;-66
2021/04/13 13:21:09;;;;;;;;;;;10.60;58.00;;;;;;5032978;28;19952;-67
2021/04/13 13:23:36;;;;;;;;;;;10.50;56.00;;;;;;5035782;28;20007;-66
2021/04/13 13:26:09;;;;;;;;;;;10.10;56.80;;;;;;5037587;28;19910;-67
2021/04/13 13:28:42;;;;;;;;;;;10.50;55.40;;;;;;5035968;28;19909;-67
2021/04/13 13:31:08;;;;;;;;;;;10.50;54.90;;;;;;5026698;28;20187;-67
2021/04/13 13:33:33;;;;;;;;;;;11.10;57.70;;;;;;5037259;28;19917;-68
2021/04/13 13:35:59;;;;;;;;;;;11.80;56.30;;;;;;5036306;28;19913;-68
2021/04/13 13:38:25;;;;;;;;;;;11.80;54.00;;;;;;5032321;28;19917;-66
2021/04/13 13:40:50;;;;;;;;;;;11.70;53.30;;;;;;5029869;28;19920;-67
2021/04/13 13:43:21;;;;;;;;;;;10.60;53.20;;;;;;5036614;28;19963;-68
2021/04/13 13:45:48;;;;;;;;;;;9.70;52.70;;;;;;5036484;28;19913;-66
2021/04/13 13:48:20;;;;;;;;;;;8.90;55.40;;;;;;5031523;28;19913;-67
2021/04/13 13:50:46;;;;;;;;;;;8.60;54.90;;;;;;5036589;28;19913;-67
2021/04/13 13:53:22;;;;;;;;;;;8.20;57.50;;;;;;5025490;28;19932;-67
2021/04/13 13:55:55;;;;;;;;;;;7.70;56.90;;;;;;5020117;28;19925;-65
2021/04/13 13:58:24;;;;;;;;;;;7.20;58.00;;;;;;5027035;28;19939;-66
2021/04/13 14:00:53;;;;;;;;;;;7.10;54.70;;;;;;5028440;28;20008;-65
2021/04/13 14:03:47;;;;;;;;;;;7.30;57.70;;;;;;5021754;28;19917;-66
2021/04/13 14:06:15;;;;;;;;;;;7.60;55.40;;;;;;5028404;28;20301;-65
2021/04/13 14:08:45;;;;;;;;;;;7.80;54.60;;;;;;5024851;28;19917;-65
2021/04/13 14:11:19;;;;;;;;;;;8.60;55.90;;;;;;5025805;28;20011;-66
2021/04/13 14:14:04;;;;;;;;;;;9.60;55.00;;;;;;5028030;28;20023;-67
2021/04/13 14:16:41;;;;;;;;;;;10.20;56.80;;;;;;5026537;28;19928;-67
2021/04/13 14:19:15;;;;;;;;;;;10.20;57.00;;;;;;5031133;28;19928;-67
2021/04/13 14:21:41;;;;;;;;;;;10.60;56.80;;;;;;5026789;28;19917;-65
2021/04/13 14:24:09;;;;;;;;;;;10.50;55.80;;;;;;5018713;28;19983;-66
2021/04/13 14:26:34;;;;;;;;;;;10.70;56.60;;;;;;5027472;28;19913;-65
2021/04/13 14:29:15;;;;;;;;;;;10.30;53.90;;;;;;5045968;28;19923;-66
2021/04/13 14:31:41;;;;;;;;;;;9.40;54.90;;;;;;5034343;28;19917;-65
2021/04/13 14:34:07;;;;;;;;;;;8.50;55.10;;;;;;5031544;28;19921;-66
2021/04/13 14:36:37;;;;;;;;;;;8.10;56.00;;;;;;5033716;28;20310;-65
2021/04/13 14:39:12;;;;;;;;;;;7.60;56.20;;;;;;5032210;28;19944;-65
2021/04/13 14:41:37;;;;;;;;;;;7.10;58.00;;;;;;5030101;28;19917;-65
2021/04/13 14:44:04;;;;;;;;;;;7.00;58.50;;;;;;5029926;28;19920;-64
2021/04/13 14:46:29;;;;;;;;;;;7.10;58.70;;;;;;5033672;28;19948;-65
2021/04/13 14:48:55;;;;;;;;;;;7.00;58.40;;;;;;5033291;28;19917;-65
2021/04/13 14:51:21;;;;;;;;;;;7.20;59.70;;;;;;5029199;28;20011;-65
2021/04/13 14:53:47;;;;;;;;;;;7.20;58.50;;;;;;5031533;28;19925;-64
2021/04/13 14:56:13;;;;;;;;;;;7.00;58.10;;;;;;5031789;28;19913;-65
2021/04/13 14:58:39;;;;;;;;;;;6.70;59.00;;;;;;5021059;28;20298;-65
2021/04/13 15:01:04;;;;;;;;;;;6.50;59.90;;;;;;5024071;28;20011;-65